Highley, United Kingdom
Current Conditions -  °F | °C
As of 6:20 AM on Friday 19 Dec 2014 (Local Time) from EGBB Reporting Station
Broken Clouds Broken Clouds  
Wind Chill: 42°   Ceiling: 3800
Heat Index: 46°   Visibility: 6mi
Dew Point: 41°   Wind: 8mph
Humidity: 81%   Direction: 270°W
Pressure: 29.8"   Gusts: NA
Location:  52.45°N, 2.38°W
Report Text: EGBB 190620Z 27007KT 220V290 9999 BKN038 08/05 Q1009
Loading
Personal Weather Stations






























Interactive Weather Map New forecast layout! Learn more

10-Day Weather Forecast

Advertisements
Track Severe Weather on mobile